createdAt,value
2022-12-25T00:00:20.377Z,10.18
2022-12-25T00:03:09.501Z,10.16
2022-12-25T00:05:40.252Z,10.16
2022-12-25T00:08:07.919Z,10.12
2022-12-25T00:10:42.907Z,10.06
2022-12-25T00:13:12.696Z,9.98
2022-12-25T00:15:41.697Z,9.92
2022-12-25T00:18:09.737Z,9.88
2022-12-25T00:20:37.736Z,9.88
2022-12-25T00:23:05.443Z,9.90
2022-12-25T00:25:33.139Z,9.92
2022-12-25T00:28:00.955Z,9.91
2022-12-25T00:30:28.708Z,9.93
2022-12-25T00:32:56.447Z,9.94
2022-12-25T00:35:24.196Z,9.92
2022-12-25T00:37:51.931Z,9.86
2022-12-25T00:40:19.642Z,9.85
2022-12-25T00:42:49.747Z,9.82
2022-12-25T00:45:17.728Z,9.77
2022-12-25T00:47:45.471Z,9.73
2022-12-25T00:50:13.308Z,9.64
2022-12-25T00:52:41.100Z,9.58
2022-12-25T00:55:09.207Z,9.52
2022-12-25T00:57:36.913Z,9.46
2022-12-25T01:00:05.883Z,9.41
2022-12-25T01:02:33.778Z,9.39
2022-12-25T01:05:01.853Z,9.40
2022-12-25T01:07:29.708Z,9.47
2022-12-25T01:10:16.285Z,9.49
2022-12-25T01:12:44.115Z,9.52
2022-12-25T01:15:13.042Z,9.56
2022-12-25T01:17:42.491Z,9.60
2022-12-25T01:20:13.607Z,9.65
2022-12-25T01:22:41.610Z,9.70
2022-12-25T01:25:11.253Z,9.70
2022-12-25T01:27:41.505Z,9.69
2022-12-25T01:30:10.193Z,9.70
2022-12-25T01:32:38.361Z,9.73
2022-12-25T01:35:06.693Z,9.76
2022-12-25T01:37:34.376Z,9.83
2022-12-25T01:40:02.152Z,9.86
2022-12-25T01:42:29.989Z,9.88
2022-12-25T01:44:57.644Z,9.90
2022-12-25T01:47:25.452Z,9.91
2022-12-25T01:49:53.260Z,9.94
2022-12-25T01:52:25.125Z,9.95
2022-12-25T01:54:59.338Z,9.89
2022-12-25T01:57:32.597Z,9.86
2022-12-25T02:00:01.808Z,9.82
2022-12-25T02:02:33.298Z,9.83
2022-12-25T02:05:09.482Z,9.86
2022-12-25T02:07:41.206Z,9.89
2022-12-25T02:10:11.962Z,9.90
2022-12-25T02:12:42.617Z,9.91
2022-12-25T02:15:17.079Z,9.91
2022-12-25T02:18:10.291Z,9.92
2022-12-25T02:21:20.520Z,9.92
2022-12-25T02:24:09.928Z,9.91
2022-12-25T02:26:59.120Z,9.89
2022-12-25T02:29:42.483Z,9.85
2022-12-25T02:32:34.777Z,9.87
2022-12-25T02:35:30.952Z,9.88
2022-12-25T02:38:10.942Z,9.83
2022-12-25T02:40:49.369Z,9.81
2022-12-25T02:44:00.921Z,9.79
2022-12-25T02:46:51.972Z,9.79
2022-12-25T02:49:44.077Z,9.79
2022-12-25T02:52:36.579Z,9.80
2022-12-25T02:55:32.040Z,9.80
2022-12-25T02:58:30.562Z,9.84
2022-12-25T03:01:28.330Z,9.85
2022-12-25T03:04:19.875Z,9.88
2022-12-25T03:07:11.454Z,9.90
2022-12-25T03:10:04.816Z,9.94
2022-12-25T03:12:57.487Z,9.95
2022-12-25T03:15:44.971Z,9.91
2022-12-25T03:18:18.755Z,9.91
2022-12-25T03:21:05.186Z,9.92
2022-12-25T03:23:56.269Z,9.93
2022-12-25T03:26:45.140Z,9.93
2022-12-25T03:29:35.976Z,9.97
2022-12-25T03:32:20.253Z,10.01
2022-12-25T03:35:31.407Z,10.01
2022-12-25T03:38:29.796Z,9.98
2022-12-25T03:41:53.273Z,9.97
2022-12-25T03:44:58.680Z,9.99
2022-12-25T03:48:06.413Z,9.97
2022-12-25T03:50:59.488Z,9.99
2022-12-25T03:53:59.931Z,10.01
2022-12-25T03:56:49.165Z,10.01
2022-12-25T03:59:41.181Z,10.02
2022-12-25T04:02:28.144Z,10.05
2022-12-25T04:05:14.889Z,10.07
2022-12-25T04:08:01.292Z,10.09
2022-12-25T04:10:47.722Z,10.12
2022-12-25T04:13:34.518Z,10.13
2022-12-25T04:16:21.138Z,10.15
2022-12-25T04:19:07.824Z,10.17
2022-12-25T04:21:54.193Z,10.23
2022-12-25T04:24:40.444Z,10.25
2022-12-25T04:27:26.826Z,10.23
2022-12-25T04:30:13.142Z,10.27
2022-12-25T04:32:59.400Z,10.30
2022-12-25T04:35:45.898Z,10.31
2022-12-25T04:38:13.695Z,10.30
2022-12-25T04:40:41.423Z,10.40
2022-12-25T04:43:09.124Z,10.39
2022-12-25T04:45:36.884Z,10.36
2022-12-25T04:48:05.132Z,10.33
2022-12-25T04:50:32.844Z,10.34
2022-12-25T04:53:00.651Z,10.35
2022-12-25T04:55:28.372Z,10.35
2022-12-25T04:57:56.085Z,10.32
2022-12-25T05:00:23.823Z,10.28
2022-12-25T05:02:51.740Z,10.20
2022-12-25T05:05:19.724Z,10.20
2022-12-25T05:07:47.392Z,10.20
2022-12-25T05:10:15.682Z,10.18
2022-12-25T05:12:43.535Z,10.14
2022-12-25T05:15:11.389Z,10.10
2022-12-25T05:17:39.100Z,10.10
2022-12-25T05:20:08.039Z,10.07
2022-12-25T05:22:35.732Z,10.11
2022-12-25T05:25:03.521Z,10.13
2022-12-25T05:27:31.222Z,10.13
2022-12-25T05:29:58.942Z,10.13
2022-12-25T05:32:26.652Z,10.12
2022-12-25T05:34:54.322Z,10.10
2022-12-25T05:37:22.118Z,10.07
2022-12-25T05:39:49.863Z,10.02
2022-12-25T05:42:17.580Z,9.92
2022-12-25T05:44:45.383Z,9.89
2022-12-25T05:47:13.069Z,9.81
2022-12-25T05:49:40.763Z,9.79
2022-12-25T05:52:08.576Z,9.77
2022-12-25T05:54:36.346Z,9.74
2022-12-25T05:57:04.168Z,9.69
2022-12-25T05:59:34.109Z,9.67
2022-12-25T06:02:02.072Z,9.63
2022-12-25T06:04:29.973Z,9.59
2022-12-25T06:06:57.678Z,9.54
2022-12-25T06:09:25.570Z,9.54
2022-12-25T06:11:53.244Z,9.54
2022-12-25T06:14:21.081Z,9.54
2022-12-25T06:16:53.868Z,9.54
2022-12-25T06:19:22.601Z,9.54
2022-12-25T06:21:54.490Z,9.56
2022-12-25T06:24:23.852Z,9.57
2022-12-25T06:26:51.605Z,9.56
2022-12-25T06:29:19.353Z,9.55
2022-12-25T06:31:47.182Z,9.54
2022-12-25T06:34:16.614Z,9.55
2022-12-25T06:36:44.485Z,9.54
2022-12-25T06:39:12.224Z,9.53
2022-12-25T06:41:39.969Z,9.52
2022-12-25T06:44:09.152Z,9.57
2022-12-25T06:46:36.881Z,9.60
2022-12-25T06:49:04.659Z,9.63
2022-12-25T06:51:33.579Z,9.65
2022-12-25T06:54:03.992Z,9.65
2022-12-25T06:56:34.043Z,9.65
2022-12-25T06:59:06.328Z,9.67
2022-12-25T07:01:49.858Z,9.71
2022-12-25T07:04:42.420Z,9.75
2022-12-25T07:07:10.552Z,9.78
2022-12-25T07:09:39.363Z,9.81
2022-12-25T07:12:13.072Z,9.85
2022-12-25T07:14:41.613Z,9.86
2022-12-25T07:17:09.340Z,9.86
2022-12-25T07:19:42.696Z,9.86
2022-12-25T07:22:13.666Z,9.89
2022-12-25T07:24:41.649Z,9.94
2022-12-25T07:27:09.968Z,10.02
2022-12-25T07:29:37.875Z,10.03
2022-12-25T07:32:06.261Z,9.99
2022-12-25T07:34:34.119Z,9.99
2022-12-25T07:37:01.971Z,10.04
2022-12-25T07:39:30.323Z,10.13
2022-12-25T07:41:58.075Z,10.14
2022-12-25T07:44:28.431Z,10.11
2022-12-25T07:46:56.295Z,10.06
2022-12-25T07:49:24.022Z,10.08
2022-12-25T07:51:51.707Z,10.12
2022-12-25T07:54:19.626Z,10.12
2022-12-25T07:56:52.303Z,10.11
2022-12-25T07:59:21.252Z,10.11
2022-12-25T08:01:50.589Z,10.10
2022-12-25T08:04:18.616Z,10.11
2022-12-25T08:06:46.535Z,10.10
2022-12-25T08:09:14.299Z,10.08
2022-12-25T08:11:47.060Z,10.04
2022-12-25T08:14:15.822Z,10.04
2022-12-25T08:16:44.514Z,10.03
2022-12-25T08:19:14.473Z,10.07
2022-12-25T08:21:42.257Z,10.12
2022-12-25T08:24:10.764Z,10.14
2022-12-25T08:26:38.528Z,10.16
2022-12-25T08:29:06.328Z,10.15
2022-12-25T08:31:37.222Z,10.16
2022-12-25T08:34:07.403Z,10.18
2022-12-25T08:36:35.554Z,10.21
2022-12-25T08:39:05.084Z,10.23
2022-12-25T08:41:33.137Z,10.24
2022-12-25T08:44:00.831Z,10.28
2022-12-25T08:46:28.743Z,10.30
2022-12-25T08:48:57.065Z,10.28
2022-12-25T08:51:26.345Z,10.33
2022-12-25T08:53:59.943Z,10.35
2022-12-25T08:56:29.323Z,10.36
2022-12-25T08:58:57.341Z,10.38
2022-12-25T09:01:25.226Z,10.41
2022-12-25T09:03:53.285Z,10.43
2022-12-25T09:06:21.182Z,10.46
2022-12-25T09:08:50.043Z,10.49
2022-12-25T09:11:19.952Z,10.51
2022-12-25T09:13:49.407Z,10.58
2022-12-25T09:16:22.015Z,10.61
2022-12-25T09:18:50.355Z,10.65
2022-12-25T09:21:18.973Z,10.64
2022-12-25T09:23:46.867Z,10.68
2022-12-25T09:26:17.240Z,10.76
2022-12-25T09:28:51.371Z,10.78
2022-12-25T09:31:22.491Z,10.80
2022-12-25T09:33:51.890Z,10.83
2022-12-25T09:36:23.165Z,10.85
2022-12-25T09:38:51.989Z,10.93
2022-12-25T09:41:52.519Z,10.95
2022-12-25T09:44:31.262Z,11.00
2022-12-25T09:47:06.390Z,11.03
2022-12-25T09:50:13.808Z,11.15
2022-12-25T09:52:57.565Z,11.23
2022-12-25T09:55:31.340Z,11.31
2022-12-25T09:58:08.648Z,11.38
2022-12-25T10:00:48.558Z,11.32
2022-12-25T10:04:17.872Z,11.31
2022-12-25T10:07:24.037Z,11.33
2022-12-25T10:10:28.911Z,11.32
2022-12-25T10:13:30.430Z,11.19
2022-12-25T10:16:15.704Z,11.13
2022-12-25T10:19:21.799Z,11.16
2022-12-25T10:21:56.843Z,11.13
2022-12-25T10:24:42.506Z,11.11
2022-12-25T10:27:31.448Z,11.15
2022-12-25T10:30:01.062Z,11.13
2022-12-25T10:32:29.240Z,11.12
2022-12-25T10:34:57.048Z,11.12
2022-12-25T10:37:25.112Z,11.11
2022-12-25T10:39:52.896Z,11.15
2022-12-25T10:42:45.016Z,11.14
2022-12-25T10:45:12.719Z,11.13
2022-12-25T10:47:42.771Z,11.16
2022-12-25T10:50:26.102Z,11.19
2022-12-25T10:53:09.317Z,11.21
2022-12-25T10:55:37.087Z,11.21
2022-12-25T10:58:06.258Z,11.21
2022-12-25T11:00:34.089Z,11.20
2022-12-25T11:03:02.246Z,11.24
2022-12-25T11:05:34.397Z,11.31
2022-12-25T11:08:03.830Z,11.36
2022-12-25T11:10:36.201Z,11.40
2022-12-25T11:13:19.155Z,11.39
2022-12-25T11:15:51.426Z,11.48
2022-12-25T11:18:34.588Z,11.57
2022-12-25T11:21:16.001Z,11.66
2022-12-25T11:23:49.390Z,11.75
2022-12-25T11:26:18.838Z,11.77
2022-12-25T11:28:51.123Z,11.78
2022-12-25T11:31:25.816Z,11.82
2022-12-25T11:34:12.173Z,11.84
2022-12-25T11:36:52.130Z,11.86
2022-12-25T11:39:36.253Z,11.91
2022-12-25T11:42:24.145Z,11.99
2022-12-25T11:45:03.727Z,12.16
2022-12-25T11:47:46.418Z,12.26
2022-12-25T11:50:20.217Z,12.32
2022-12-25T11:52:49.132Z,12.42
2022-12-25T11:55:27.018Z,12.53
2022-12-25T11:58:02.827Z,12.59
2022-12-25T12:00:35.277Z,12.60
2022-12-25T12:03:38.484Z,12.59
2022-12-25T12:06:35.667Z,12.55
2022-12-25T12:09:25.974Z,12.49
2022-12-25T12:12:20.577Z,12.47
2022-12-25T12:15:01.646Z,12.47
2022-12-25T12:17:30.035Z,12.53
2022-12-25T12:19:58.839Z,12.52
2022-12-25T12:22:28.521Z,12.52
2022-12-25T12:25:04.023Z,12.56
2022-12-25T12:27:40.641Z,12.56
2022-12-25T12:30:29.161Z,12.57
2022-12-25T12:33:01.401Z,12.63
2022-12-25T12:35:35.284Z,12.69
2022-12-25T12:38:12.065Z,12.82
2022-12-25T12:40:51.772Z,12.87
2022-12-25T12:43:38.927Z,12.83
2022-12-25T12:46:18.032Z,12.81
2022-12-25T12:48:50.397Z,12.84
2022-12-25T12:51:35.715Z,12.82
2022-12-25T12:54:24.474Z,12.70
2022-12-25T12:57:06.270Z,12.56
2022-12-25T12:59:44.516Z,12.43
2022-12-25T13:03:02.219Z,12.31
2022-12-25T13:06:17.914Z,12.19
2022-12-25T13:09:11.098Z,12.23
2022-12-25T13:11:43.508Z,12.16
2022-12-25T13:14:18.795Z,12.10
2022-12-25T13:16:50.222Z,12.09
2022-12-25T13:19:23.578Z,12.08
2022-12-25T13:21:58.287Z,12.11
2022-12-25T13:24:35.764Z,12.19
2022-12-25T13:27:26.299Z,12.24
2022-12-25T13:29:54.146Z,12.25
2022-12-25T13:32:29.938Z,12.20
2022-12-25T13:35:00.282Z,12.16
2022-12-25T13:37:31.188Z,12.14
2022-12-25T13:40:07.111Z,12.15
2022-12-25T13:42:39.744Z,12.15
2022-12-25T13:45:26.641Z,12.17
2022-12-25T13:47:56.066Z,12.17
2022-12-25T13:50:31.495Z,12.14
2022-12-25T13:53:13.299Z,12.13
2022-12-25T13:55:44.211Z,12.13
2022-12-25T13:58:39.240Z,12.16
2022-12-25T14:01:07.398Z,12.10
2022-12-25T14:03:46.075Z,12.06
2022-12-25T14:06:26.478Z,12.01
2022-12-25T14:08:57.781Z,11.99
2022-12-25T14:11:31.111Z,12.01
2022-12-25T14:14:07.961Z,12.08
2022-12-25T14:16:36.136Z,12.20
2022-12-25T14:19:03.964Z,12.27
2022-12-25T14:21:38.572Z,12.32
2022-12-25T14:24:15.069Z,12.36
2022-12-25T14:26:43.491Z,12.34
2022-12-25T14:29:20.452Z,12.31
2022-12-25T14:31:50.378Z,12.26
2022-12-25T14:34:24.056Z,12.21
2022-12-25T14:36:53.421Z,12.11
2022-12-25T14:39:38.260Z,12.03
2022-12-25T14:42:22.525Z,11.98
2022-12-25T14:45:34.291Z,11.87
2022-12-25T14:48:22.851Z,11.77
2022-12-25T14:51:17.421Z,11.68
2022-12-25T14:53:53.699Z,11.63
2022-12-25T14:56:25.720Z,11.62
2022-12-25T14:58:59.855Z,11.64
2022-12-25T15:01:42.088Z,11.57
2022-12-25T15:04:09.967Z,11.51
2022-12-25T15:06:59.830Z,11.54
2022-12-25T15:09:30.005Z,11.57
2022-12-25T15:11:58.424Z,11.60
2022-12-25T15:14:27.261Z,11.56
2022-12-25T15:17:01.632Z,11.61
2022-12-25T15:19:38.915Z,11.65
2022-12-25T15:22:07.051Z,11.58
2022-12-25T15:24:34.971Z,11.56
2022-12-25T15:27:05.454Z,11.61
2022-12-25T15:30:07.821Z,11.52
2022-12-25T15:32:24.241Z,11.48
2022-12-25T15:34:53.002Z,11.46
2022-12-25T15:37:20.828Z,11.46
2022-12-25T15:39:48.627Z,11.47
2022-12-25T15:42:20.933Z,11.39
2022-12-25T15:44:48.664Z,11.29
2022-12-25T15:47:20.158Z,11.21
2022-12-25T15:49:48.915Z,11.14
2022-12-25T15:52:17.785Z,11.06
2022-12-25T15:54:45.686Z,11.02
2022-12-25T15:57:20.653Z,10.99
2022-12-25T15:59:48.793Z,10.97
2022-12-25T16:02:20.917Z,10.94
2022-12-25T16:04:51.042Z,10.91
2022-12-25T16:07:23.070Z,10.91
2022-12-25T16:09:51.349Z,10.89
2022-12-25T16:12:20.003Z,10.88
2022-12-25T16:14:47.737Z,10.88
2022-12-25T16:17:16.702Z,10.84
2022-12-25T16:19:44.922Z,10.82
2022-12-25T16:22:19.495Z,10.80
2022-12-25T16:24:48.582Z,10.75
2022-12-25T16:27:16.310Z,10.71
2022-12-25T16:29:44.491Z,10.68
2022-12-25T16:32:14.571Z,10.69
2022-12-25T16:34:42.408Z,10.71
2022-12-25T16:37:10.197Z,10.70
2022-12-25T16:39:38.097Z,10.66
2022-12-25T16:42:06.025Z,10.64
2022-12-25T16:44:37.359Z,10.63
2022-12-25T16:47:05.106Z,10.67
2022-12-25T16:49:32.952Z,10.67
2022-12-25T16:52:00.740Z,10.66
2022-12-25T16:54:28.616Z,10.65
2022-12-25T16:56:56.386Z,10.61
2022-12-25T16:59:24.138Z,10.58
2022-12-25T17:01:52.016Z,10.57
2022-12-25T17:04:19.836Z,10.53
2022-12-25T17:06:49.047Z,10.53
2022-12-25T17:09:16.810Z,10.52
2022-12-25T17:11:44.534Z,10.46
2022-12-25T17:14:12.375Z,10.43
2022-12-25T17:16:40.564Z,10.40
2022-12-25T17:19:18.701Z,10.36
2022-12-25T17:21:47.543Z,10.34
2022-12-25T17:24:16.334Z,10.31
2022-12-25T17:26:44.890Z,10.30
2022-12-25T17:29:19.961Z,10.30
2022-12-25T17:31:50.568Z,10.27
2022-12-25T17:34:19.001Z,10.23
2022-12-25T17:36:47.674Z,10.21
2022-12-25T17:39:15.455Z,10.20
2022-12-25T17:41:43.180Z,10.18
2022-12-25T17:44:11.146Z,10.13
2022-12-25T17:46:38.958Z,10.10
2022-12-25T17:49:06.785Z,10.06
2022-12-25T17:51:34.602Z,10.04
2022-12-25T17:54:05.142Z,10.02
2022-12-25T17:56:33.309Z,10.02
2022-12-25T17:59:06.788Z,10.01
2022-12-25T18:01:38.413Z,9.99
2022-12-25T18:04:06.919Z,9.97
2022-12-25T18:06:37.010Z,9.93
2022-12-25T18:09:06.207Z,9.91
2022-12-25T18:11:37.011Z,9.89
2022-12-25T18:14:08.221Z,9.87
2022-12-25T18:16:39.630Z,9.85
2022-12-25T18:19:07.387Z,9.84
2022-12-25T18:21:35.522Z,9.82
2022-12-25T18:24:06.240Z,9.80
2022-12-25T18:26:34.818Z,9.77
2022-12-25T18:29:03.824Z,9.73
2022-12-25T18:31:31.783Z,9.70
2022-12-25T18:34:00.372Z,9.66
2022-12-25T18:36:30.186Z,9.68
2022-12-25T18:38:59.333Z,9.67
2022-12-25T18:41:28.707Z,9.66
2022-12-25T18:43:59.671Z,9.68
2022-12-25T18:46:28.408Z,9.68
2022-12-25T18:48:57.452Z,9.66
2022-12-25T18:51:27.678Z,9.64
2022-12-25T18:53:59.027Z,9.62
2022-12-25T18:56:26.858Z,9.63
2022-12-25T18:58:55.004Z,9.62
2022-12-25T19:01:26.094Z,9.62
2022-12-25T19:04:00.255Z,9.60
2022-12-25T19:06:33.291Z,9.59
2022-12-25T19:09:08.562Z,9.59
2022-12-25T19:11:46.160Z,9.59
2022-12-25T19:14:15.291Z,9.59
2022-12-25T19:16:43.150Z,9.58
2022-12-25T19:19:11.278Z,9.59
2022-12-25T19:21:39.019Z,9.60
2022-12-25T19:24:07.442Z,9.57
2022-12-25T19:26:36.027Z,9.56
2022-12-25T19:29:03.906Z,9.54
2022-12-25T19:31:31.911Z,9.49
2022-12-25T19:33:59.789Z,9.45
2022-12-25T19:36:27.589Z,9.40
2022-12-25T19:38:55.492Z,9.39
2022-12-25T19:41:23.272Z,9.39
2022-12-25T19:43:52.114Z,9.35
2022-12-25T19:46:32.054Z,9.34
2022-12-25T19:49:04.518Z,9.31
2022-12-25T19:51:37.038Z,9.34
2022-12-25T19:54:06.380Z,9.34
2022-12-25T19:56:34.715Z,9.35
2022-12-25T19:59:02.797Z,9.36
2022-12-25T20:01:31.418Z,9.35
2022-12-25T20:03:59.465Z,9.37
2022-12-25T20:06:32.512Z,9.37
2022-12-25T20:09:08.157Z,9.40
2022-12-25T20:11:37.596Z,9.41
2022-12-25T20:14:07.841Z,9.46
2022-12-25T20:16:40.205Z,9.50
2022-12-25T20:19:09.637Z,9.55
2022-12-25T20:21:37.484Z,9.61
2022-12-25T20:24:06.585Z,9.66
2022-12-25T20:26:34.825Z,9.73
2022-12-25T20:29:04.072Z,9.76
2022-12-25T20:31:35.401Z,9.74
2022-12-25T20:34:08.875Z,9.72
2022-12-25T20:36:38.353Z,9.75
2022-12-25T20:39:12.161Z,9.73
2022-12-25T20:41:40.958Z,9.69
2022-12-25T20:44:10.111Z,9.66
2022-12-25T20:46:38.550Z,9.64
2022-12-25T20:49:12.989Z,9.64
2022-12-25T20:51:43.503Z,9.66
2022-12-25T20:54:14.148Z,9.69
2022-12-25T20:56:42.227Z,9.71
2022-12-25T20:59:11.983Z,9.73
2022-12-25T21:01:45.063Z,9.71
2022-12-25T21:04:16.421Z,9.69
2022-12-25T21:06:45.216Z,9.70
2022-12-25T21:09:13.269Z,9.68
2022-12-25T21:11:41.517Z,9.67
2022-12-25T21:14:09.603Z,9.65
2022-12-25T21:16:37.918Z,9.67
2022-12-25T21:19:06.432Z,9.67
2022-12-25T21:21:35.928Z,9.67
2022-12-25T21:24:04.086Z,9.66
2022-12-25T21:26:33.596Z,9.65
2022-12-25T21:29:03.971Z,9.66
2022-12-25T21:31:56.602Z,9.65
2022-12-25T21:34:24.478Z,9.66
2022-12-25T21:36:52.483Z,9.65
2022-12-25T21:39:20.575Z,9.65
2022-12-25T21:41:48.485Z,9.61
2022-12-25T21:44:16.298Z,9.57
2022-12-25T21:46:44.223Z,9.56
2022-12-25T21:49:12.031Z,9.54
2022-12-25T21:51:58.616Z,9.51
2022-12-25T21:54:26.383Z,9.42
2022-12-25T21:56:54.079Z,9.36
2022-12-25T21:59:22.439Z,9.36
2022-12-25T22:01:52.373Z,9.39
2022-12-25T22:04:23.484Z,9.42
2022-12-25T22:07:10.388Z,9.44
2022-12-25T22:09:38.160Z,9.48
2022-12-25T22:12:30.184Z,9.52
2022-12-25T22:15:07.601Z,9.56
2022-12-25T22:17:58.991Z,9.57
2022-12-25T22:20:37.276Z,9.57
2022-12-25T22:23:05.786Z,9.54
2022-12-25T22:25:33.639Z,9.47
2022-12-25T22:28:01.490Z,9.40
2022-12-25T22:30:30.006Z,9.33
2022-12-25T22:32:58.233Z,9.29
2022-12-25T22:35:26.005Z,9.26
2022-12-25T22:37:54.325Z,9.24
2022-12-25T22:40:22.271Z,9.25
2022-12-25T22:42:54.653Z,9.26
2022-12-25T22:45:23.738Z,9.25
2022-12-25T22:47:51.550Z,9.22
2022-12-25T22:50:19.437Z,9.18
2022-12-25T22:52:47.254Z,9.16
2022-12-25T22:55:19.112Z,9.14
2022-12-25T22:57:47.073Z,9.09
2022-12-25T23:00:15.189Z,9.06
2022-12-25T23:02:43.239Z,9.03
2022-12-25T23:05:11.223Z,9.05
2022-12-25T23:07:40.366Z,9.06
2022-12-25T23:10:10.102Z,9.09
2022-12-25T23:12:56.723Z,9.12
2022-12-25T23:15:24.495Z,9.16
2022-12-25T23:18:11.875Z,9.16
2022-12-25T23:20:58.367Z,9.14
2022-12-25T23:23:44.891Z,9.11
2022-12-25T23:26:15.963Z,9.07
2022-12-25T23:29:03.188Z,9.08
2022-12-25T23:31:39.827Z,9.11
2022-12-25T23:34:10.710Z,9.17
2022-12-25T23:36:38.677Z,9.21
2022-12-25T23:39:09.934Z,9.22
2022-12-25T23:41:40.856Z,9.20
2022-12-25T23:44:11.366Z,9.15
2022-12-25T23:46:40.604Z,9.14
2022-12-25T23:49:10.198Z,9.13
2022-12-25T23:51:45.657Z,9.15
2022-12-25T23:54:18.217Z,9.19
2022-12-25T23:56:46.469Z,9.24
2022-12-25T23:59:14.889Z,9.34
